»·PEaware :: CFC412 CYVR-KSEA

CFC412 :: CYVR-KSEA

FLIGHT INFORMATION

Flight Status: Arrived
Operator:
Canadian Armed Forces
More flights by this operator :: More flights under this callsign
Pilot: Anonymous 24180 (24180)
Aircraft: AIRBUS A320
(A320)
More flights by this aircraft type
Origin: CYVR Vancouver Intl
Canada
Destination: KSEA Seattle-Tacoma Intl
United States
More flights between these airports :: More routes between these airports
Route: +ROESH MARNR7
File this flight plan on PilotEdge
Remarks: RMK / SIMBRIEF
Altitude:
(Current/Filed)
17,000ft
Speed:
(Current/Filed)
424kts
Departed: 21-Oct-20 11:10 AM
Arrived: 21-Oct-20 11:47 AM
Distance/Time
Traveled:
111nm/0:37
Distance/Time
To Go:
Arrived

Flight Plot

Page will automatically refresh every two minutes.

Flight plan parsing failed; only flown route is shown


Map Options




Map Legend


Flown Route
Filed Route
Departure Airport
Arrival Airport
Navaid (VOR, NDB)
Fix

Horizontal Profiles

Position Reports

Time Latitude Longitude Heading Altitude Ground
Speed
21-Oct-20 10:49 49.191900 -123.182118 9 20ft 0kts
21-Oct-20 10:50 49.191900 -123.182118 9 20ft 0kts
21-Oct-20 10:51 49.191900 -123.182118 9 20ft 0kts
21-Oct-20 10:52 49.191900 -123.182118 9 20ft 0kts
21-Oct-20 10:53 49.191900 -123.182118 9 20ft 0kts
21-Oct-20 10:54 49.191900 -123.182118 9 20ft 0kts
21-Oct-20 10:55 49.191900 -123.182118 9 20ft 0kts
21-Oct-20 10:56 49.191900 -123.182118 9 20ft 0kts
21-Oct-20 10:57 49.191900 -123.182118 9 20ft 0kts
21-Oct-20 10:58 49.191900 -123.182119 9 20ft 0kts
21-Oct-20 10:59 49.191354 -123.182257 11 20ft 2kts
21-Oct-20 11:00 49.191223 -123.182676 101 20ft 0kts
21-Oct-20 11:01 49.191223 -123.182675 101 20ft 0kts
21-Oct-20 11:02 49.191223 -123.182675 101 20ft 0kts
21-Oct-20 11:03 49.191210 -123.182575 101 20ft 0kts
21-Oct-20 11:04 49.189312 -123.180654 161 20ft 12kts
21-Oct-20 11:05 49.188286 -123.173325 99 18ft 19kts
21-Oct-20 11:06 49.187434 -123.165891 100 17ft 12kts
21-Oct-20 11:07 49.186045 -123.159013 100 16ft 16kts
21-Oct-20 11:08 49.184523 -123.159081 279 16ft 0kts
21-Oct-20 11:09 49.186297 -123.174837 278 225ft 147kts
21-Oct-20 11:10 49.208836 -123.239532 345 3687ft 238kts
21-Oct-20 11:11 49.277106 -123.211292 18 8165ft 269kts
21-Oct-20 11:12 49.349527 -123.174584 17 12423ft 288kts
21-Oct-20 11:13 49.424132 -123.132988 36 16468ft 291kts
21-Oct-20 11:14 49.428099 -123.014780 129 17032ft 335kts
21-Oct-20 11:15 49.340141 -123.000645 201 17030ft 342kts
21-Oct-20 11:16 49.249640 -123.046155 181 17035ft 347kts
21-Oct-20 11:17 49.153559 -123.041993 177 17031ft 346kts
21-Oct-20 11:18 49.057225 -123.037329 178 17033ft 350kts
21-Oct-20 11:19 48.951366 -123.030300 182 17024ft 431kts
21-Oct-20 11:20 48.826561 -123.025469 182 17035ft 453kts
21-Oct-20 11:21 48.700579 -123.021183 182 17039ft 453kts
21-Oct-20 11:22 48.574833 -123.002648 172 17042ft 458kts
21-Oct-20 11:23 48.450143 -122.966778 172 17048ft 458kts
21-Oct-20 11:24 48.325074 -122.931010 172 17070ft 457kts
21-Oct-20 11:25 48.200407 -122.895536 172 17076ft 457kts
21-Oct-20 11:26 48.078795 -122.860936 172 17092ft 410kts
21-Oct-20 11:27 47.981600 -122.797905 150 17069ft 380kts
21-Oct-20 11:28 47.891598 -122.716608 150 16454ft 377kts
21-Oct-20 11:29 47.804457 -122.638254 150 14306ft 357kts
21-Oct-20 11:30 47.724789 -122.566993 151 12831ft 312kts
21-Oct-20 11:31 47.647473 -122.513163 155 11267ft 305kts
21-Oct-20 11:32 47.572368 -122.464479 174 10177ft 281kts
21-Oct-20 11:33 47.495708 -122.464343 182 8892ft 273kts
21-Oct-20 11:34 47.420800 -122.465064 182 7683ft 264kts
21-Oct-20 11:35 47.351198 -122.465618 182 7008ft 230kts
21-Oct-20 11:36 47.287883 -122.465767 182 6215ft 227kts
21-Oct-20 11:37 47.225751 -122.465728 177 4618ft 222kts
21-Oct-20 11:38 47.196646 -122.397540 96 4011ft 186kts
21-Oct-20 11:39 47.214683 -122.348466 26 3847ft 138kts
21-Oct-20 11:40 47.247823 -122.320018 26 3036ft 137kts
21-Oct-20 11:41 47.284254 -122.309461 357 2989ft 135kts
21-Oct-20 11:42 47.321585 -122.309085 357 2409ft 133kts
21-Oct-20 11:43 47.357347 -122.308756 357 1787ft 128kts
21-Oct-20 11:44 47.392551 -122.308424 357 1165ft 125kts
21-Oct-20 11:45 47.426723 -122.308094 357 567ft 121kts
21-Oct-20 11:46 47.443250 -122.307681 37 442ft 13kts
21-Oct-20 11:47 47.440642 -122.306372 180 442ft 10kts
21-Oct-20 11:48 47.440662 -122.302160 355 442ft 8kts
21-Oct-20 11:49 47.441528 -122.301368 46 442ft 0kts
21-Oct-20 11:50 47.441528 -122.301368 46 442ft 0kts

Navigation Log

Ident Type
Flight plan parsing failed, navigation log unavailable